Terminal Aerodrome Forecast
Issued by NWS Charleston, WV

Current Version | Previous Version | Graphics & Text | Print | Product List | Glossary On
Versions: 1 2 3 4 5 6 7 8 9 10 11 12 13 14 15 16 17 18 19 20 21 22 23 24 25
000
FTUS41 KRLX 030910 AAA
TAFHTS
TAF AMD
KHTS 030910Z 0309/0406 VRB03KT P6SM SCT008 BKN020 OVC050
     FM031600 28005KT P6SM BKN015
     FM032000 30006KT P6SM BKN035=

USA.gov is the U.S. government's official web portal to all federal, state and local government web resources and services.